Earl Gonsoulin — WDC3306 — position and weather

sailwx.info

Track history (hours):
 
Tides and Currents Weather Stations Pressure Air Temp Water Temp Dewpoint Dewpoint Depression Visibility Wind Speed Wind Dir Waves Ship Positions

Earl Gonsoulin

Owner: LeBeouf Bros. Towing, L.L.C., Houma, LA. More information available from US FCC via Universal Licensing System and Coast Guard Vessel Documentation Center.

Last reported at 2015-Apr-16 04:03 UTC. Time now 2015-Apr-19 14:10 UTC.
Position N 29°22' W 094°47'.

Length 9 m.

Type: Towing. MMSI: 367005550.

Date/timePositionNaut miles runAvg speedWind from/ knotsBaromVisibWave heightAir tempDewpointWater temp
2015-Apr-16 04:03N 29°22' W 094°47'2 4.1
2015-Apr-16 03:33N 29°24' W 094°49'6 6.0
2015-Apr-16 02:32N 29°29' W 094°52'6 6.3
2015-Apr-16 01:33N 29°34' W 094°56'6 6.3
2015-Apr-16 00:33N 29°40' W 094°59'5 4.8
2015-Apr-15 23:32N 29°44' W 095°02'5 4.4
2015-Apr-15 22:28N 29°44' W 095°08'4 0.2
2015-Apr-15 04:07N 29°45' W 095°12'0 0.0
2015-Apr-15 03:28N 29°45' W 095°12'4 4.0
2015-Apr-15 02:32N 29°44' W 095°07'5 4.8
2015-Apr-15 01:33N 29°44' W 095°02'6 6.0
2015-Apr-15 00:33N 29°39' W 094°58'7 7.1
2015-Apr-14 23:34N 29°33' W 094°54'16 3.9
2015-Apr-14 19:31N 29°29' W 094°37'15 2.1
2015-Apr-14 12:18N 29°37' W 094°21'6 5.8
2015-Apr-14 11:20N 29°39' W 094°16'7 5.6
2015-Apr-14 10:05N 29°42' W 094°08'16 5.7
2015-Apr-14 07:12N 29°54' W 093°55'  
2015-Apr-08 03:33N 29°24' W 094°49'7 6.8
2015-Apr-08 02:33N 29°30' W 094°52'7 6.6
2015-Apr-08 01:33N 29°36' W 094°57'7 6.5
2015-Apr-08 00:33N 29°42' W 094°59'6 5.8
2015-Apr-07 23:33N 29°46' W 095°04'5 5.4
2015-Apr-07 22:32N 29°45' W 095°11'1 0.2
2015-Apr-07 16:33N 29°45' W 095°12'0 0.0
2015-Apr-07 15:33N 29°45' W 095°12'0 0.0
2015-Apr-07 14:33N 29°45' W 095°12'0 0.0
2015-Apr-07 13:33N 29°45' W 095°12'0 0.0
2015-Apr-07 12:33N 29°45' W 095°12'0 0.0
2015-Apr-07 11:33N 29°45' W 095°12'0 0.0
2015-Apr-07 10:33N 29°45' W 095°12'0 0.0
2015-Apr-07 09:33N 29°45' W 095°12'0 0.0
2015-Apr-07 08:33N 29°45' W 095°12'0 0.0
2015-Apr-07 07:33N 29°45' W 095°12'0 0.0
2015-Apr-07 06:33N 29°45' W 095°12'0 0.1
2015-Apr-07 05:33N 29°45' W 095°12'2 2.3
2015-Apr-07 04:33N 29°44' W 095°09'3 3.1
2015-Apr-07 03:33N 29°46' W 095°06'1 0.7
2015-Apr-07 02:32N 29°47' W 095°06'0 0.0
2015-Apr-07 01:33N 29°47' W 095°06'0 0.0
2015-Apr-07 00:32N 29°47' W 095°06'0 0.0
2015-Apr-06 23:33N 29°47' W 095°06'0 0.0
2015-Apr-06 22:33N 29°47' W 095°06'0 0.1
2015-Apr-06 21:33N 29°47' W 095°06'0 0.0
2015-Apr-06 20:33N 29°47' W 095°06'0 0.0
2015-Apr-06 19:33N 29°47' W 095°06'0 0.0
2015-Apr-06 18:33N 29°47' W 095°06'0 0.0
2015-Apr-06 17:33N 29°47' W 095°06'0 0.0
2015-Apr-06 16:34N 29°47' W 095°06'0 0.0
2015-Apr-06 15:33N 29°47' W 095°06'0 0.0
2015-Apr-06 14:33N 29°47' W 095°06'0 0.0
2015-Apr-06 13:33N 29°47' W 095°06'  
Track history (hours):
 
Tides and Currents Weather Stations Pressure Air Temp Water Temp Dewpoint Dewpoint Depression Visibility Wind Speed Wind Dir Waves Ship Positions

Earl Gonsoulin

Owner: LeBeouf Bros. Towing, L.L.C., Houma, LA. More information available from US FCC via Universal Licensing System and Coast Guard Vessel Documentation Center.

Last reported at 2015-Apr-16 04:03 UTC. Time now 2015-Apr-19 14:10 UTC.
Position N 29°22' W 094°47'.

Length 9 m.

Type: Towing. MMSI: 367005550.

Date/timePositionNaut miles runAvg speedWind from/ knotsBaromVisibWave heightAir tempDewpointWater temp
2015-Apr-16 04:03N 29°22' W 094°47'2 4.1
2015-Apr-16 03:33N 29°24' W 094°49'6 6.0
2015-Apr-16 02:32N 29°29' W 094°52'6 6.3
2015-Apr-16 01:33N 29°34' W 094°56'6 6.3
2015-Apr-16 00:33N 29°40' W 094°59'5 4.8
2015-Apr-15 23:32N 29°44' W 095°02'5 4.4
2015-Apr-15 22:28N 29°44' W 095°08'4 0.2
2015-Apr-15 04:07N 29°45' W 095°12'0 0.0
2015-Apr-15 03:28N 29°45' W 095°12'4 4.0
2015-Apr-15 02:32N 29°44' W 095°07'5 4.8
2015-Apr-15 01:33N 29°44' W 095°02'6 6.0
2015-Apr-15 00:33N 29°39' W 094°58'7 7.1
2015-Apr-14 23:34N 29°33' W 094°54'16 3.9
2015-Apr-14 19:31N 29°29' W 094°37'15 2.1
2015-Apr-14 12:18N 29°37' W 094°21'6 5.8
2015-Apr-14 11:20N 29°39' W 094°16'7 5.6
2015-Apr-14 10:05N 29°42' W 094°08'16 5.7
2015-Apr-14 07:12N 29°54' W 093°55'  
2015-Apr-08 03:33N 29°24' W 094°49'7 6.8
2015-Apr-08 02:33N 29°30' W 094°52'7 6.6
2015-Apr-08 01:33N 29°36' W 094°57'7 6.5
2015-Apr-08 00:33N 29°42' W 094°59'6 5.8
2015-Apr-07 23:33N 29°46' W 095°04'5 5.4
2015-Apr-07 22:32N 29°45' W 095°11'1 0.2
2015-Apr-07 16:33N 29°45' W 095°12'0 0.0
2015-Apr-07 15:33N 29°45' W 095°12'0 0.0
2015-Apr-07 14:33N 29°45' W 095°12'0 0.0
2015-Apr-07 13:33N 29°45' W 095°12'0 0.0
2015-Apr-07 12:33N 29°45' W 095°12'0 0.0
2015-Apr-07 11:33N 29°45' W 095°12'0 0.0
2015-Apr-07 10:33N 29°45' W 095°12'0 0.0
2015-Apr-07 09:33N 29°45' W 095°12'0 0.0
2015-Apr-07 08:33N 29°45' W 095°12'0 0.0
2015-Apr-07 07:33N 29°45' W 095°12'0 0.0
2015-Apr-07 06:33N 29°45' W 095°12'0 0.1
2015-Apr-07 05:33N 29°45' W 095°12'2 2.3
2015-Apr-07 04:33N 29°44' W 095°09'3 3.1
2015-Apr-07 03:33N 29°46' W 095°06'1 0.7
2015-Apr-07 02:32N 29°47' W 095°06'0 0.0
2015-Apr-07 01:33N 29°47' W 095°06'0 0.0
2015-Apr-07 00:32N 29°47' W 095°06'0 0.0
2015-Apr-06 23:33N 29°47' W 095°06'0 0.0
2015-Apr-06 22:33N 29°47' W 095°06'0 0.1
2015-Apr-06 21:33N 29°47' W 095°06'0 0.0
2015-Apr-06 20:33N 29°47' W 095°06'0 0.0
2015-Apr-06 19:33N 29°47' W 095°06'0 0.0
2015-Apr-06 18:33N 29°47' W 095°06'0 0.0
2015-Apr-06 17:33N 29°47' W 095°06'0 0.0
2015-Apr-06 16:34N 29°47' W 095°06'0 0.0
2015-Apr-06 15:33N 29°47' W 095°06'0 0.0
2015-Apr-06 14:33N 29°47' W 095°06'0 0.0
2015-Apr-06 13:33N 29°47' W 095°06'  

Dump ship's entire track history